createdAt,value
2022-07-29T00:02:01.936Z,22.15
2022-07-29T00:04:30.199Z,22.52
2022-07-29T00:06:57.974Z,22.36
2022-07-29T00:09:25.747Z,22.47
2022-07-29T00:11:54.485Z,22.31
2022-07-29T00:14:22.296Z,22.80
2022-07-29T00:16:50.130Z,22.96
2022-07-29T00:19:18.348Z,23.39
2022-07-29T00:21:46.126Z,23.36
2022-07-29T00:24:14.218Z,23.56
2022-07-29T00:26:42.456Z,23.16
2022-07-29T00:31:58.737Z,23.02
2022-07-29T00:34:44.907Z,22.84
2022-07-29T00:37:12.858Z,23.36
2022-07-29T00:39:40.599Z,23.27
2022-07-29T00:42:09.028Z,23.38
2022-07-29T00:44:38.920Z,23.63
2022-07-29T00:47:07.298Z,23.67
2022-07-29T00:49:35.517Z,23.52
2022-07-29T00:52:05.093Z,23.55
2022-07-29T00:54:34.598Z,23.78
2022-07-29T00:57:02.729Z,23.56
2022-07-29T00:59:34.653Z,24.07
2022-07-29T01:02:06.270Z,23.83
2022-07-29T01:04:34.709Z,23.58
2022-07-29T01:07:03.666Z,23.74
2022-07-29T01:09:45.165Z,23.72
2022-07-29T01:12:19.088Z,24.01
2022-07-29T01:14:47.274Z,24.00
2022-07-29T01:17:18.358Z,24.10
2022-07-29T01:20:12.555Z,23.58
2022-07-29T01:23:02.402Z,23.62
2022-07-29T01:25:55.886Z,23.88
2022-07-29T01:28:49.037Z,23.55
2022-07-29T01:31:25.296Z,23.36
2022-07-29T01:34:01.456Z,23.88
2022-07-29T01:36:42.497Z,24.03
2022-07-29T01:39:13.827Z,23.99
2022-07-29T01:41:50.447Z,23.55
2022-07-29T01:44:47.425Z,23.34
2022-07-29T01:47:21.507Z,23.79
2022-07-29T01:49:53.205Z,23.82
2022-07-29T01:52:51.276Z,23.85
2022-07-29T01:55:21.686Z,23.85
2022-07-29T01:57:50.806Z,23.96
2022-07-29T02:00:18.947Z,23.59
2022-07-29T02:02:48.906Z,23.99
2022-07-29T02:05:18.912Z,23.91
2022-07-29T02:07:48.731Z,23.76
2022-07-29T02:10:16.697Z,23.71
2022-07-29T02:12:50.601Z,23.67
2022-07-29T02:15:20.096Z,23.67
2022-07-29T02:17:58.016Z,23.80
2022-07-29T02:20:28.038Z,22.82
2022-07-29T02:22:56.946Z,23.68
2022-07-29T02:25:25.857Z,23.44
2022-07-29T02:28:07.746Z,23.67
2022-07-29T02:30:41.616Z,23.20
2022-07-29T02:33:11.526Z,23.07
2022-07-29T02:35:39.836Z,22.87
2022-07-29T02:38:28.136Z,23.11
2022-07-29T02:40:57.240Z,23.11
2022-07-29T02:43:26.155Z,22.97
2022-07-29T02:45:54.427Z,23.25
2022-07-29T02:48:29.351Z,23.28
2022-07-29T02:51:05.335Z,23.34
2022-07-29T02:53:34.926Z,23.53
2022-07-29T02:56:10.395Z,23.10
2022-07-29T02:58:42.089Z,23.89
2022-07-29T03:01:22.149Z,23.17
2022-07-29T03:03:52.329Z,23.04
2022-07-29T03:06:28.858Z,22.88
2022-07-29T03:09:13.235Z,22.97
2022-07-29T03:11:50.116Z,23.31
2022-07-29T03:14:20.809Z,23.31
2022-07-29T03:16:49.725Z,23.89
2022-07-29T03:19:18.117Z,23.14
2022-07-29T03:21:46.277Z,22.77
2022-07-29T03:24:35.738Z,22.99
2022-07-29T03:27:05.177Z,23.22
2022-07-29T03:29:34.378Z,23.50
2022-07-29T03:32:08.162Z,23.38
2022-07-29T03:34:38.665Z,23.42
2022-07-29T03:37:07.340Z,23.58
2022-07-29T03:39:39.598Z,24.14
2022-07-29T03:42:09.028Z,23.33
2022-07-29T03:44:37.745Z,23.91
2022-07-29T03:47:07.019Z,23.36
2022-07-29T03:49:37.426Z,23.44
2022-07-29T03:52:06.178Z,23.40
2022-07-29T03:54:34.195Z,23.47
2022-07-29T03:57:02.950Z,23.43
2022-07-29T03:59:32.031Z,23.88
2022-07-29T04:02:00.457Z,23.51
2022-07-29T04:04:28.991Z,23.51
2022-07-29T04:06:56.847Z,23.23
2022-07-29T04:09:24.716Z,23.91
2022-07-29T04:12:02.665Z,23.39
2022-07-29T04:14:33.227Z,23.77
2022-07-29T04:17:05.024Z,23.74
2022-07-29T04:19:32.934Z,24.12
2022-07-29T04:22:03.867Z,23.43
2022-07-29T04:24:31.774Z,24.20
2022-07-29T04:26:59.586Z,23.56
2022-07-29T04:29:27.785Z,24.50
2022-07-29T04:31:55.587Z,24.24
2022-07-29T04:34:23.414Z,23.94
2022-07-29T04:36:56.825Z,24.00
2022-07-29T04:39:25.080Z,23.72
2022-07-29T04:41:57.026Z,24.21
2022-07-29T04:44:28.631Z,24.67
2022-07-29T04:46:58.137Z,25.02
2022-07-29T04:49:26.256Z,24.62
2022-07-29T04:51:54.032Z,24.84
2022-07-29T04:54:22.116Z,25.20
2022-07-29T04:56:50.145Z,25.60
2022-07-29T04:59:17.899Z,25.98
2022-07-29T05:01:46.260Z,26.52
2022-07-29T05:04:14.335Z,25.79
2022-07-29T05:06:42.356Z,25.62
2022-07-29T05:09:10.734Z,26.22
2022-07-29T05:11:38.505Z,26.14
2022-07-29T05:14:06.230Z,26.45
2022-07-29T05:16:34.669Z,26.19
2022-07-29T05:19:02.604Z,26.35
2022-07-29T05:21:30.364Z,26.30
2022-07-29T05:23:58.456Z,26.51
2022-07-29T05:26:26.181Z,26.68
2022-07-29T05:28:55.009Z,27.04
2022-07-29T05:31:23.193Z,26.96
2022-07-29T05:33:51.084Z,26.25
2022-07-29T05:36:19.355Z,26.71
2022-07-29T05:38:47.500Z,27.03
2022-07-29T05:41:15.516Z,27.36
2022-07-29T05:43:43.297Z,27.03
2022-07-29T05:46:11.378Z,27.24
2022-07-29T05:48:40.111Z,27.36
2022-07-29T05:51:07.966Z,27.06
2022-07-29T05:53:36.115Z,27.39
2022-07-29T05:56:07.226Z,27.46
2022-07-29T05:58:35.187Z,27.87
2022-07-29T06:01:03.811Z,28.26
2022-07-29T06:03:31.945Z,27.41
2022-07-29T06:05:59.696Z,27.62
2022-07-29T06:08:27.397Z,27.66
2022-07-29T06:10:55.615Z,28.14
2022-07-29T06:13:23.533Z,28.18
2022-07-29T06:15:51.297Z,28.30
2022-07-29T06:18:19.473Z,28.68
2022-07-29T06:20:47.708Z,28.67
2022-07-29T06:23:15.569Z,28.99
2022-07-29T06:25:43.854Z,29.54
2022-07-29T06:28:11.938Z,29.80
2022-07-29T06:30:40.617Z,29.50
2022-07-29T06:33:08.847Z,28.99
2022-07-29T06:35:42.277Z,29.43
2022-07-29T06:38:30.897Z,29.89
2022-07-29T06:41:02.674Z,29.62
2022-07-29T06:43:33.260Z,29.84
2022-07-29T06:46:06.253Z,29.80
2022-07-29T06:48:34.859Z,29.92
2022-07-29T06:51:03.184Z,30.22
2022-07-29T06:53:31.813Z,29.59
2022-07-29T06:56:01.106Z,30.70
2022-07-29T06:58:29.157Z,30.60
2022-07-29T07:00:58.102Z,31.03
2022-07-29T07:03:26.471Z,31.25
2022-07-29T07:05:55.305Z,31.29
2022-07-29T07:08:24.675Z,31.51
2022-07-29T07:10:53.468Z,30.60
2022-07-29T07:13:21.321Z,31.38
2022-07-29T07:15:49.598Z,30.98
2022-07-29T07:18:18.094Z,31.47
2022-07-29T07:20:46.704Z,31.22
2022-07-29T07:23:14.520Z,31.37
2022-07-29T07:25:43.247Z,32.08
2022-07-29T07:28:11.418Z,32.23
2022-07-29T07:30:39.342Z,31.94
2022-07-29T07:33:07.425Z,32.58
2022-07-29T07:35:35.263Z,32.96
2022-07-29T07:38:03.155Z,32.66
2022-07-29T07:40:31.437Z,32.95
2022-07-29T07:42:59.257Z,32.98
2022-07-29T07:45:27.537Z,32.64
2022-07-29T07:47:55.849Z,32.34
2022-07-29T07:50:23.692Z,32.69
2022-07-29T07:52:58.975Z,33.08
2022-07-29T07:55:27.580Z,33.71
2022-07-29T07:57:56.186Z,33.63
2022-07-29T08:00:24.156Z,32.87
2022-07-29T08:02:52.433Z,34.33
2022-07-29T08:05:20.809Z,33.33
2022-07-29T08:07:48.974Z,34.50
2022-07-29T08:10:37.410Z,34.29
2022-07-29T08:13:06.796Z,34.42
2022-07-29T08:15:35.268Z,34.51
2022-07-29T08:18:08.790Z,35.03
2022-07-29T08:20:39.453Z,34.12
2022-07-29T08:23:09.753Z,35.54
2022-07-29T08:25:42.728Z,34.51
2022-07-29T08:28:10.625Z,34.43
2022-07-29T08:30:38.837Z,35.02
2022-07-29T08:33:06.715Z,33.71
2022-07-29T08:35:35.753Z,34.58
2022-07-29T08:38:04.808Z,35.37
2022-07-29T08:40:33.006Z,34.72
2022-07-29T08:43:08.894Z,34.59
2022-07-29T08:45:48.999Z,35.09
2022-07-29T08:48:22.263Z,35.39
2022-07-29T08:50:56.746Z,35.39
2022-07-29T08:53:27.978Z,35.28
2022-07-29T08:55:57.265Z,35.35
2022-07-29T08:58:25.989Z,35.55
2022-07-29T09:00:56.137Z,36.39
2022-07-29T09:03:26.201Z,35.84
2022-07-29T09:05:54.434Z,36.06
2022-07-29T09:08:22.768Z,36.52
2022-07-29T09:10:52.207Z,36.39
2022-07-29T09:13:20.197Z,36.20
2022-07-29T09:15:48.085Z,36.40
2022-07-29T09:18:36.208Z,36.54
2022-07-29T09:21:23.826Z,36.27
2022-07-29T09:24:13.949Z,36.26
2022-07-29T09:26:46.602Z,36.01
2022-07-29T09:29:19.271Z,37.25
2022-07-29T09:31:49.593Z,37.13
2022-07-29T09:34:23.824Z,36.32
2022-07-29T09:36:52.949Z,36.47
2022-07-29T09:39:39.136Z,37.56
2022-07-29T09:42:07.560Z,36.55
2022-07-29T09:44:53.985Z,36.55
2022-07-29T09:47:25.157Z,35.89
2022-07-29T09:50:00.576Z,36.55
2022-07-29T09:52:30.496Z,37.17
2022-07-29T09:55:09.547Z,36.52
2022-07-29T09:57:37.695Z,37.62
2022-07-29T10:00:14.633Z,36.39
2022-07-29T10:02:47.368Z,37.00
2022-07-29T10:05:26.127Z,38.23
2022-07-29T10:07:57.488Z,37.61
2022-07-29T10:10:28.467Z,36.88
2022-07-29T10:13:06.359Z,37.31
2022-07-29T10:15:40.584Z,37.32
2022-07-29T10:18:09.918Z,37.79
2022-07-29T10:20:38.368Z,37.61
2022-07-29T10:23:06.904Z,36.80
2022-07-29T10:25:35.456Z,36.99
2022-07-29T10:28:04.024Z,37.97
2022-07-29T10:30:32.288Z,38.22
2022-07-29T10:33:31.675Z,37.85
2022-07-29T10:36:31.955Z,36.98
2022-07-29T10:39:13.026Z,37.53
2022-07-29T10:42:04.827Z,37.87
2022-07-29T10:44:34.517Z,37.99
2022-07-29T10:47:02.853Z,37.86
2022-07-29T10:49:31.290Z,37.37
2022-07-29T10:52:07.765Z,37.35
2022-07-29T10:54:48.865Z,37.66
2022-07-29T10:57:18.275Z,37.63
2022-07-29T10:59:53.086Z,38.01
2022-07-29T11:02:42.623Z,37.50
2022-07-29T11:05:20.446Z,36.91
2022-07-29T11:08:19.516Z,37.79
2022-07-29T11:10:49.210Z,36.81
2022-07-29T11:13:49.041Z,37.09
2022-07-29T11:16:20.112Z,37.43
2022-07-29T11:19:14.578Z,37.19
2022-07-29T11:24:35.011Z,38.10
2022-07-29T11:27:18.005Z,38.58
2022-07-29T11:29:56.478Z,38.19
2022-07-29T11:32:25.705Z,38.26
2022-07-29T11:35:37.930Z,38.47
2022-07-29T11:38:23.435Z,38.32
2022-07-29T11:41:26.018Z,39.06
2022-07-29T11:43:59.774Z,38.44
2022-07-29T11:46:54.077Z,38.77
2022-07-29T11:49:32.207Z,38.08
2022-07-29T11:52:04.606Z,37.92
2022-07-29T11:54:57.257Z,37.59
2022-07-29T11:57:36.041Z,37.47
2022-07-29T12:02:57.708Z,37.25
2022-07-29T12:05:48.060Z,36.92
2022-07-29T12:07:03.249Z,37.15
2022-07-29T12:08:24.048Z,36.95
2022-07-29T12:10:52.612Z,37.62
2022-07-29T12:13:22.356Z,38.54
2022-07-29T12:16:02.417Z,38.49
2022-07-29T12:18:30.737Z,38.22
2022-07-29T12:21:06.299Z,37.38
2022-07-29T12:23:36.032Z,37.31
2022-07-29T12:26:10.582Z,37.85
2022-07-29T12:28:40.042Z,37.18
2022-07-29T12:31:44.141Z,37.65
2022-07-29T12:34:03.368Z,38.08
2022-07-29T12:36:31.557Z,37.99
2022-07-29T12:38:59.259Z,37.18
2022-07-29T12:41:30.149Z,36.64
2022-07-29T12:43:57.969Z,36.05
2022-07-29T12:46:25.922Z,36.03
2022-07-29T12:48:58.579Z,36.49
2022-07-29T12:51:38.587Z,36.06
2022-07-29T12:54:12.245Z,36.25
2022-07-29T12:56:45.319Z,37.17
2022-07-29T12:59:21.465Z,37.22
2022-07-29T13:01:51.718Z,36.59
2022-07-29T13:04:31.079Z,36.80
2022-07-29T13:07:06.623Z,37.15
2022-07-29T13:09:38.908Z,36.90
2022-07-29T13:12:11.661Z,37.52
2022-07-29T13:14:45.111Z,36.43
2022-07-29T13:17:14.100Z,36.80
2022-07-29T13:19:52.716Z,37.17
2022-07-29T13:22:22.812Z,36.76
2022-07-29T13:24:52.016Z,36.08
2022-07-29T13:27:21.407Z,36.42
2022-07-29T13:29:52.408Z,36.62
2022-07-29T13:32:28.673Z,36.35
2022-07-29T13:34:58.237Z,36.94
2022-07-29T13:37:27.429Z,37.08
2022-07-29T13:39:57.043Z,37.65
2022-07-29T13:42:26.013Z,37.15
2022-07-29T13:44:54.198Z,36.69
2022-07-29T13:47:23.149Z,36.29
2022-07-29T13:50:02.362Z,36.01
2022-07-29T13:52:30.674Z,35.76
2022-07-29T13:54:58.634Z,35.75
2022-07-29T13:57:26.865Z,35.54
2022-07-29T13:59:54.788Z,36.61
2022-07-29T14:02:25.415Z,36.68
2022-07-29T14:04:55.409Z,36.48
2022-07-29T14:07:23.615Z,36.49
2022-07-29T14:09:51.477Z,36.13
2022-07-29T14:12:20.235Z,36.50
2022-07-29T14:14:48.156Z,36.88
2022-07-29T14:17:16.669Z,37.03
2022-07-29T14:19:44.863Z,35.85
2022-07-29T14:22:12.680Z,36.33
2022-07-29T14:24:41.012Z,36.50
2022-07-29T14:27:09.472Z,36.51
2022-07-29T14:29:38.789Z,36.32
2022-07-29T14:32:08.465Z,36.30
2022-07-29T14:34:37.568Z,36.53
2022-07-29T14:37:09.596Z,36.78
2022-07-29T14:39:44.517Z,36.67
2022-07-29T14:42:12.902Z,37.42
2022-07-29T14:44:42.705Z,36.21
2022-07-29T14:47:11.437Z,36.52
2022-07-29T14:49:39.613Z,36.88
2022-07-29T14:52:07.457Z,36.89
2022-07-29T14:54:35.487Z,36.03
2022-07-29T14:57:03.626Z,36.63
2022-07-29T14:59:31.466Z,35.93
2022-07-29T15:02:00.066Z,36.02
2022-07-29T15:04:28.006Z,36.11
2022-07-29T15:06:56.200Z,36.20
2022-07-29T15:09:24.777Z,35.80
2022-07-29T15:11:52.706Z,35.62
2022-07-29T15:14:20.444Z,36.34
2022-07-29T15:16:48.846Z,36.15
2022-07-29T15:19:16.817Z,35.63
2022-07-29T15:21:59.266Z,35.22
2022-07-29T15:24:28.082Z,35.41
2022-07-29T15:26:56.345Z,35.57
2022-07-29T15:29:24.406Z,35.35
2022-07-29T15:31:52.632Z,35.30
2022-07-29T15:34:21.901Z,35.31
2022-07-29T15:36:52.584Z,35.28
2022-07-29T15:39:22.090Z,34.98
2022-07-29T15:41:50.740Z,35.21
2022-07-29T15:44:19.359Z,35.16
2022-07-29T15:47:06.356Z,35.45
2022-07-29T15:49:47.111Z,34.72
2022-07-29T15:52:25.684Z,35.06
2022-07-29T15:54:56.197Z,35.06
2022-07-29T15:57:25.102Z,35.67
2022-07-29T15:59:52.909Z,35.01
2022-07-29T16:02:20.833Z,34.71
2022-07-29T16:04:49.493Z,34.35
2022-07-29T16:07:17.898Z,34.28
2022-07-29T16:09:50.763Z,34.96
2022-07-29T16:12:21.477Z,34.75
2022-07-29T16:14:51.375Z,34.89
2022-07-29T16:17:19.837Z,34.84
2022-07-29T16:19:48.147Z,33.98
2022-07-29T16:22:16.147Z,33.74
2022-07-29T16:24:44.007Z,34.49
2022-07-29T16:27:12.188Z,34.53
2022-07-29T16:29:40.099Z,34.40
2022-07-29T16:32:08.068Z,34.45
2022-07-29T16:34:36.292Z,35.01
2022-07-29T16:37:04.836Z,34.37
2022-07-29T16:39:33.048Z,34.04
2022-07-29T16:42:03.980Z,33.85
2022-07-29T16:44:33.985Z,33.40
2022-07-29T16:47:03.166Z,34.04
2022-07-29T16:49:30.988Z,33.01
2022-07-29T16:51:58.988Z,32.42
2022-07-29T16:54:27.678Z,33.28
2022-07-29T16:56:55.962Z,33.38
2022-07-29T16:59:24.128Z,32.96
2022-07-29T17:01:52.294Z,32.87
2022-07-29T17:04:20.107Z,32.82
2022-07-29T17:06:50.784Z,32.46
2022-07-29T17:09:19.016Z,32.15
2022-07-29T17:11:55.103Z,32.36
2022-07-29T17:14:25.609Z,31.93
2022-07-29T17:17:00.441Z,31.81
2022-07-29T17:19:35.653Z,31.54
2022-07-29T17:22:11.778Z,31.34
2022-07-29T17:24:42.654Z,31.24
2022-07-29T17:27:10.600Z,31.45
2022-07-29T17:29:39.219Z,30.85
2022-07-29T17:32:09.203Z,30.36
2022-07-29T17:34:38.466Z,31.02
2022-07-29T17:37:08.243Z,30.96
2022-07-29T17:39:39.538Z,30.74
2022-07-29T17:42:09.092Z,30.66
2022-07-29T17:44:38.017Z,30.42
2022-07-29T17:47:07.958Z,30.43
2022-07-29T17:49:45.560Z,30.33
2022-07-29T17:52:13.506Z,30.05
2022-07-29T17:54:41.296Z,29.56
2022-07-29T17:57:09.475Z,29.43
2022-07-29T17:59:37.696Z,29.09
2022-07-29T18:02:05.481Z,29.22
2022-07-29T18:04:33.920Z,28.93
2022-07-29T18:07:01.996Z,28.83
2022-07-29T18:09:30.126Z,28.60
2022-07-29T18:11:58.341Z,27.60
2022-07-29T18:14:26.188Z,28.33
2022-07-29T18:16:53.995Z,28.35
2022-07-29T18:19:22.118Z,28.02
2022-07-29T18:21:54.493Z,27.92
2022-07-29T18:24:25.906Z,27.66
2022-07-29T18:26:54.167Z,27.83
2022-07-29T18:29:22.318Z,27.78
2022-07-29T18:31:50.603Z,27.55
2022-07-29T18:34:18.436Z,27.33
2022-07-29T18:36:46.976Z,27.39
2022-07-29T18:39:20.291Z,27.08
2022-07-29T18:41:52.535Z,26.63
2022-07-29T18:44:22.037Z,26.40
2022-07-29T18:46:52.120Z,26.93
2022-07-29T18:49:20.630Z,26.74
2022-07-29T18:51:49.205Z,26.52
2022-07-29T18:54:17.746Z,26.31
2022-07-29T18:56:46.715Z,26.23
2022-07-29T18:59:20.135Z,25.86
2022-07-29T19:01:49.124Z,26.30
2022-07-29T19:04:17.607Z,26.91
2022-07-29T19:06:45.755Z,27.04
2022-07-29T19:09:14.051Z,26.61
2022-07-29T19:11:42.349Z,26.21
2022-07-29T19:14:10.175Z,26.28
2022-07-29T19:16:38.376Z,26.33
2022-07-29T19:19:07.427Z,25.98
2022-07-29T19:21:36.108Z,26.42
2022-07-29T19:24:07.394Z,26.42
2022-07-29T19:26:41.089Z,26.32
2022-07-29T19:29:09.646Z,27.11
2022-07-29T19:31:37.442Z,27.12
2022-07-29T19:34:05.380Z,26.60
2022-07-29T19:36:33.920Z,26.64
2022-07-29T19:39:01.967Z,26.63
2022-07-29T19:41:29.895Z,26.42
2022-07-29T19:43:58.390Z,26.71
2022-07-29T19:46:29.147Z,26.47
2022-07-29T19:48:57.299Z,26.53
2022-07-29T19:51:25.937Z,25.88
2022-07-29T19:53:53.795Z,26.17
2022-07-29T19:56:21.556Z,26.43
2022-07-29T19:58:52.735Z,26.23
2022-07-29T20:01:20.922Z,26.79
2022-07-29T20:03:49.324Z,26.67
2022-07-29T20:06:18.049Z,27.32
2022-07-29T20:08:46.725Z,26.44
2022-07-29T20:11:14.887Z,26.38
2022-07-29T20:13:42.755Z,26.32
2022-07-29T20:16:10.602Z,26.35
2022-07-29T20:18:38.898Z,26.08
2022-07-29T20:21:06.839Z,26.46
2022-07-29T20:23:34.983Z,25.78
2022-07-29T20:26:06.092Z,26.21
2022-07-29T20:28:37.427Z,26.08
2022-07-29T20:31:05.604Z,26.34
2022-07-29T20:33:33.467Z,26.05
2022-07-29T20:36:01.287Z,25.96
2022-07-29T20:38:30.739Z,25.56
2022-07-29T20:40:59.029Z,26.03
2022-07-29T20:43:27.491Z,25.82
2022-07-29T20:45:55.651Z,25.88
2022-07-29T20:48:23.656Z,25.40
2022-07-29T20:50:51.665Z,25.57
2022-07-29T20:53:20.569Z,25.78
2022-07-29T20:55:48.788Z,25.76
2022-07-29T20:58:16.531Z,25.95
2022-07-29T21:00:44.880Z,25.17
2022-07-29T21:03:12.706Z,24.80
2022-07-29T21:05:44.038Z,25.35
2022-07-29T21:08:12.477Z,25.14
2022-07-29T21:10:40.330Z,25.08
2022-07-29T21:13:08.315Z,25.06
2022-07-29T21:15:36.790Z,25.78
2022-07-29T21:18:06.236Z,25.59
2022-07-29T21:20:34.080Z,25.87
2022-07-29T21:23:02.245Z,26.11
2022-07-29T21:25:30.188Z,26.54
2022-07-29T21:28:16.777Z,26.12
2022-07-29T21:30:45.066Z,26.75
2022-07-29T21:33:12.991Z,26.94
2022-07-29T21:36:02.136Z,26.49
2022-07-29T21:38:30.406Z,26.70
2022-07-29T21:40:58.855Z,26.35
2022-07-29T21:43:28.656Z,26.97
2022-07-29T21:45:58.264Z,26.58
2022-07-29T21:48:27.637Z,26.52
2022-07-29T21:50:55.636Z,26.85
2022-07-29T21:53:26.717Z,26.74
2022-07-29T21:55:55.312Z,27.07
2022-07-29T21:58:25.026Z,26.44
2022-07-29T22:00:52.997Z,26.18
2022-07-29T22:03:21.195Z,26.34
2022-07-29T22:05:49.197Z,26.12
2022-07-29T22:08:17.080Z,26.07
2022-07-29T22:10:45.097Z,26.02
2022-07-29T22:13:12.867Z,25.72
2022-07-29T22:15:45.388Z,25.78
2022-07-29T22:18:20.930Z,26.51
2022-07-29T22:20:50.007Z,26.69
2022-07-29T22:23:18.219Z,26.01
2022-07-29T22:25:45.998Z,26.26
2022-07-29T22:28:13.841Z,25.59
2022-07-29T22:30:42.070Z,25.50
2022-07-29T22:33:09.933Z,25.84
2022-07-29T22:35:48.433Z,25.94
2022-07-29T22:38:18.196Z,25.47
2022-07-29T22:40:48.776Z,26.02
2022-07-29T22:43:18.457Z,25.78
2022-07-29T22:45:46.732Z,25.23
2022-07-29T22:48:14.628Z,25.62
2022-07-29T22:50:42.519Z,25.66
2022-07-29T22:53:10.568Z,25.33
2022-07-29T22:55:38.407Z,25.71
2022-07-29T22:58:06.205Z,24.59
2022-07-29T23:00:34.516Z,24.41
2022-07-29T23:03:02.278Z,24.31
2022-07-29T23:05:30.067Z,24.35
2022-07-29T23:07:58.387Z,24.56
2022-07-29T23:10:26.259Z,24.56
2022-07-29T23:12:54.028Z,25.22
2022-07-29T23:15:22.111Z,24.60
2022-07-29T23:17:49.876Z,24.57
2022-07-29T23:20:17.706Z,24.39
2022-07-29T23:22:45.827Z,24.84
2022-07-29T23:25:13.577Z,24.75
2022-07-29T23:27:41.416Z,24.34
2022-07-29T23:30:10.096Z,24.84
2022-07-29T23:32:37.917Z,24.74
2022-07-29T23:35:07.145Z,24.78
2022-07-29T23:37:35.496Z,24.40
2022-07-29T23:40:04.665Z,24.50
2022-07-29T23:42:32.615Z,24.56
2022-07-29T23:45:00.685Z,24.35
2022-07-29T23:47:29.178Z,24.55
2022-07-29T23:49:57.388Z,24.78
2022-07-29T23:52:25.490Z,24.47
2022-07-29T23:54:53.596Z,24.17
2022-07-29T23:57:24.061Z,24.21
2022-07-29T23:59:53.005Z,24.79
